ABY312 EDDH-EDDB
Flight info
| Callsign | ABY312 |
|---|---|
| Flight time | N/A |
| Altitude | 23000 |
| Route | RAMAR6G/33 RAMAR Z998 PITEN L619 VIBIS T209 OGBER OGB24L |
| Aircraft | A320/M-VGDW/C |
Departure
| Time | 2026-05-07 20:04 |
|---|---|
| Airport | Hamburg Helmut Schmidt Airport (EDDH) |
Arrival
| Time | N/A |
|---|---|
| Airport | Berlin Brandenburg Airport (EDDB) |
| Time | Latitude | Longitude | Altitude | Speed | Heading |
|---|---|---|---|---|---|
| 2026-05-07 19:45 | 53.62972 | 10.00269 | 46 ft | 0 kts | 120° |
| 2026-05-07 19:56 | 53.62981 | 10.00244 | 46 ft | 2 kts | 120° |
| 2026-05-07 19:56 | 53.62989 | 10.00219 | 44 ft | 2 kts | 142° |
| 2026-05-07 19:56 | 53.63004 | 10.00210 | 44 ft | 2 kts | 211° |
| 2026-05-07 19:57 | 53.63005 | 10.00211 | 43 ft | 0 kts | 211° |
| 2026-05-07 19:59 | 53.62983 | 10.00185 | 46 ft | 9 kts | 220° |
| 2026-05-07 19:59 | 53.62939 | 10.00123 | 46 ft | 8 kts | 215° |
| 2026-05-07 20:00 | 53.62897 | 10.00076 | 46 ft | 7 kts | 213° |
| 2026-05-07 20:00 | 53.62867 | 10.00034 | 46 ft | 5 kts | 236° |
| 2026-05-07 20:00 | 53.62854 | 9.99992 | 46 ft | 3 kts | 243° |
| 2026-05-07 20:00 | 53.62847 | 9.99970 | 46 ft | 1 kts | 243° |
| 2026-05-07 20:01 | 53.62834 | 9.99926 | 45 ft | 11 kts | 244° |
| 2026-05-07 20:01 | 53.62815 | 9.99810 | 47 ft | 10 kts | 289° |
| 2026-05-07 20:01 | 53.62845 | 9.99765 | 47 ft | 0 kts | 331° |
| 2026-05-07 20:03 | 53.62847 | 9.99764 | 47 ft | 5 kts | 331° |
| 2026-05-07 20:03 | 53.63160 | 9.99494 | 45 ft | 96 kts | 333° |
| 2026-05-07 20:03 | 53.63997 | 9.98775 | 47 ft | 170 kts | 333° |
| 2026-05-07 20:04 | 53.65076 | 9.97849 | 846 ft | 175 kts | 336° |
| 2026-05-07 20:04 | 53.66168 | 9.96912 | 1803 ft | 175 kts | 336° |
| 2026-05-07 20:04 | 53.67248 | 9.95984 | 2530 ft | 174 kts | 336° |
| 2026-05-07 20:04 | 53.68323 | 9.95069 | 3197 ft | 173 kts | 340° |
| 2026-05-07 20:05 | 53.69527 | 9.94634 | 3590 ft | 186 kts | 3° |
| 2026-05-07 20:05 | 53.70884 | 9.94657 | 3999 ft | 201 kts | 3° |
| 2026-05-07 20:05 | 53.72264 | 9.94991 | 4605 ft | 201 kts | 21° |
| 2026-05-07 20:05 | 53.73503 | 9.96092 | 4959 ft | 202 kts | 40° |
| 2026-05-07 20:06 | 53.74420 | 9.97840 | 5005 ft | 198 kts | 62° |
| 2026-05-07 20:06 | 53.75025 | 9.99908 | 5012 ft | 196 kts | 66° |
| 2026-05-07 20:06 | 53.75618 | 10.01982 | 5005 ft | 196 kts | 65° |
| 2026-05-07 20:06 | 53.76213 | 10.04054 | 5005 ft | 196 kts | 65° |